Time;durP1;ratioP1;P1;durP2;ratioP2;P2;SDS_P1;SDS_P2;PMS_P1;PMS_P2;Temp;Humidity;BMP_temperature;BMP_pressure;BME280_temperature;BME280_humidity;BME280_pressure;Samples;Min_cycle;Max_cycle;Signal;HPM_P1;HPM_P2
2023/12/25 00:02:14;;;;;;;18.77;17.73;;;;;;;;;;5044888;28;20033;-77
2023/12/25 00:04:44;;;;;;;16.05;14.68;;;;;;;;;;5044976;28;20060;-73
2023/12/25 00:07:15;;;;;;;24.05;22.15;;;;;;;;;;5044880;28;20045;-73
2023/12/25 00:09:47;;;;;;;21.98;20.58;;;;;;;;;;5045611;28;20076;-75
2023/12/25 00:12:18;;;;;;;20.38;19.02;;;;;;;;;;5044924;28;20037;-74
2023/12/25 00:14:49;;;;;;;36.33;33.95;;;;;;;;;;5044804;28;20537;-74
2023/12/25 00:17:19;;;;;;;36.90;34.13;;;;;;;;;;5045378;28;20598;-75
2023/12/25 00:19:49;;;;;;;29.08;27.27;;;;;;;;;;5043194;28;20055;-74
2023/12/25 00:22:23;;;;;;;27.38;25.42;;;;;;;;;;5044606;28;20416;-75
2023/12/25 00:24:54;;;;;;;26.05;24.25;;;;;;;;;;5044682;28;20048;-73
2023/12/25 00:27:24;;;;;;;23.45;21.77;;;;;;;;;;5044720;28;20515;-74
2023/12/25 00:29:54;;;;;;;27.58;25.67;;;;;;;;;;5043655;28;20045;-75
2023/12/25 00:32:28;;;;;;;25.70;23.73;;;;;;;;;;5043682;28;20082;-75
2023/12/25 00:35:00;;;;;;;25.17;23.30;;;;;;;;;;5043438;28;20057;-76
2023/12/25 00:37:30;;;;;;;21.77;20.23;;;;;;;;;;5044319;28;20415;-76
2023/12/25 00:40:01;;;;;;;100.85;93.55;;;;;;;;;;5043838;28;20053;-72
2023/12/25 00:42:36;;;;;;;24.70;22.60;;;;;;;;;;5042983;28;20063;-72
2023/12/25 00:45:06;;;;;;;34.50;32.33;;;;;;;;;;5053261;28;20052;-73
2023/12/25 00:47:37;;;;;;;27.27;25.50;;;;;;;;;;5054063;28;20044;-74
2023/12/25 00:50:07;;;;;;;21.98;20.25;;;;;;;;;;5044589;28;20530;-74
2023/12/25 00:52:39;;;;;;;24.95;23.30;;;;;;;;;;5059982;28;20055;-74
2023/12/25 00:55:09;;;;;;;27.30;25.25;;;;;;;;;;5063345;28;20051;-73
2023/12/25 00:57:40;;;;;;;29.25;26.88;;;;;;;;;;5062383;28;20056;-75
2023/12/25 01:00:11;;;;;;;23.40;21.75;;;;;;;;;;5062694;28;20075;-74
2023/12/25 01:02:42;;;;;;;27.63;26.00;;;;;;;;;;5062339;28;20048;-74
2023/12/25 01:05:12;;;;;;;29.65;27.75;;;;;;;;;;5064442;28;20070;-74
2023/12/25 01:07:44;;;;;;;28.13;26.30;;;;;;;;;;5064267;28;20071;-75
2023/12/25 01:10:15;;;;;;;29.83;27.65;;;;;;;;;;5063301;28;20044;-77
2023/12/25 01:12:46;;;;;;;33.20;31.35;;;;;;;;;;5063028;28;20051;-74
2023/12/25 01:15:17;;;;;;;29.20;27.42;;;;;;;;;;5062520;28;20067;-75
2023/12/25 01:17:48;;;;;;;33.40;31.30;;;;;;;;;;5062598;28;20142;-76
2023/12/25 01:20:18;;;;;;;37.90;35.65;;;;;;;;;;5062797;28;20422;-76
2023/12/25 01:22:48;;;;;;;34.28;32.15;;;;;;;;;;5061390;28;20072;-73
2023/12/25 01:25:20;;;;;;;35.40;33.40;;;;;;;;;;5063212;28;20400;-77
2023/12/25 01:27:51;;;;;;;28.92;27.27;;;;;;;;;;5063243;28;20045;-75
2023/12/25 01:30:22;;;;;;;32.92;30.85;;;;;;;;;;5063767;28;20059;-73
2023/12/25 01:32:52;;;;;;;22.95;21.40;;;;;;;;;;5061902;28;20056;-75
2023/12/25 01:35:23;;;;;;;27.92;26.20;;;;;;;;;;5062060;28;20060;-72
2023/12/25 01:37:56;;;;;;;24.73;23.02;;;;;;;;;;5062737;28;20420;-75
2023/12/25 01:40:26;;;;;;;29.70;27.95;;;;;;;;;;5061615;28;20824;-75
2023/12/25 01:42:56;;;;;;;34.00;31.95;;;;;;;;;;5062594;28;20499;-75
2023/12/25 01:45:27;;;;;;;33.85;31.85;;;;;;;;;;5062162;28;20052;-75
2023/12/25 01:47:58;;;;;;;29.05;27.15;;;;;;;;;;5062311;28;20044;-74
2023/12/25 01:50:30;;;;;;;25.70;24.00;;;;;;;;;;5061235;28;20666;-73
2023/12/25 01:53:02;;;;;;;22.33;20.90;;;;;;;;;;5061709;28;20142;-73
2023/12/25 01:55:34;;;;;;;22.45;20.80;;;;;;;;;;5063008;28;20047;-73
2023/12/25 01:58:05;;;;;;;54.13;49.65;;;;;;;;;;5061427;28;20053;-74
2023/12/25 02:00:35;;;;;;;21.88;20.35;;;;;;;;;;5061878;28;20041;-76
2023/12/25 02:03:06;;;;;;;24.95;23.55;;;;;;;;;;5061217;28;20048;-73
2023/12/25 02:05:37;;;;;;;22.42;20.85;;;;;;;;;;5063226;28;20048;-75
2023/12/25 02:08:13;;;;;;;37.22;34.80;;;;;;;;;;5062115;28;20047;-74
2023/12/25 02:10:45;;;;;;;25.15;23.45;;;;;;;;;;5060606;28;20511;-76
2023/12/25 02:13:15;;;;;;;41.40;38.38;;;;;;;;;;5062581;28;20044;-74
2023/12/25 02:15:46;;;;;;;38.90;36.25;;;;;;;;;;5061769;28;20507;-72
2023/12/25 02:18:17;;;;;;;38.58;36.17;;;;;;;;;;5061989;28;20051;-75
2023/12/25 02:20:51;;;;;;;39.35;36.30;;;;;;;;;;5060694;28;20056;-73
2023/12/25 02:23:26;;;;;;;37.20;34.55;;;;;;;;;;5051816;28;20055;-72
2023/12/25 02:25:59;;;;;;;25.10;23.50;;;;;;;;;;5041663;28;20045;-75
2023/12/25 02:28:30;;;;;;;36.15;33.80;;;;;;;;;;5048590;28;20065;-74
2023/12/25 02:31:01;;;;;;;24.48;22.67;;;;;;;;;;5041674;28;20041;-73
2023/12/25 02:33:32;;;;;;;25.25;23.83;;;;;;;;;;5040771;28;20100;-74
2023/12/25 02:36:03;;;;;;;29.67;27.75;;;;;;;;;;5039983;28;20440;-75
2023/12/25 02:38:34;;;;;;;38.42;36.13;;;;;;;;;;5040755;28;20496;-77
2023/12/25 02:41:06;;;;;;;32.00;29.83;;;;;;;;;;5041593;28;20041;-80
2023/12/25 02:43:37;;;;;;;31.63;29.20;;;;;;;;;;5041358;28;20052;-74
2023/12/25 02:46:07;;;;;;;34.97;31.88;;;;;;;;;;5040870;28;20056;-73
2023/12/25 02:48:38;;;;;;;31.08;28.70;;;;;;;;;;5040162;28;20064;-75
2023/12/25 02:51:08;;;;;;;28.65;26.73;;;;;;;;;;5041690;28;20052;-75
2023/12/25 02:53:39;;;;;;;32.53;30.38;;;;;;;;;;5040711;28;20052;-75
2023/12/25 02:56:09;;;;;;;36.67;34.58;;;;;;;;;;5040447;28;20060;-75
2023/12/25 02:58:39;;;;;;;34.13;32.03;;;;;;;;;;5041515;28;20432;-73
2023/12/25 03:01:10;;;;;;;34.45;32.47;;;;;;;;;;5040878;28;20052;-72
2023/12/25 03:03:42;;;;;;;35.13;33.10;;;;;;;;;;5041261;28;20060;-74
2023/12/25 03:06:12;;;;;;;36.15;33.75;;;;;;;;;;5041787;28;20041;-74
2023/12/25 03:08:42;;;;;;;37.85;35.70;;;;;;;;;;5041847;28;20486;-75
2023/12/25 03:11:14;;;;;;;41.22;38.88;;;;;;;;;;5041003;28;20423;-77
2023/12/25 03:13:44;;;;;;;40.28;37.90;;;;;;;;;;5041833;28;20416;-73
2023/12/25 03:16:18;;;;;;;41.65;39.00;;;;;;;;;;5041578;28;20056;-73
2023/12/25 03:18:48;;;;;;;39.20;36.90;;;;;;;;;;5041473;28;20048;-74
2023/12/25 03:21:21;;;;;;;42.67;40.25;;;;;;;;;;5039789;28;20049;-73
2023/12/25 03:23:52;;;;;;;41.13;38.72;;;;;;;;;;5042979;28;20049;-73
2023/12/25 03:26:23;;;;;;;43.47;41.13;;;;;;;;;;5044942;28;20052;-74
2023/12/25 03:28:54;;;;;;;33.92;31.98;;;;;;;;;;5045970;28;20466;-73
2023/12/25 03:31:25;;;;;;;39.22;36.78;;;;;;;;;;5044185;28;20041;-74
2023/12/25 03:33:58;;;;;;;40.53;38.10;;;;;;;;;;5044042;28;20064;-75
2023/12/25 03:36:28;;;;;;;43.95;41.45;;;;;;;;;;5045343;28;20052;-76
2023/12/25 03:38:58;;;;;;;42.40;40.05;;;;;;;;;;5044869;28;20062;-76
2023/12/25 03:41:30;;;;;;;47.20;44.63;;;;;;;;;;5045013;28;20530;-77
2023/12/25 03:44:01;;;;;;;46.83;43.95;;;;;;;;;;5044599;28;20056;-74
2023/12/25 03:46:32;;;;;;;39.33;36.75;;;;;;;;;;5045025;28;20050;-77
2023/12/25 03:49:01;;;;;;;29.75;27.65;;;;;;;;;;5044111;28;20045;-74
2023/12/25 03:51:35;;;;;;;31.88;29.77;;;;;;;;;;5045088;28;20484;-74
2023/12/25 03:54:06;;;;;;;32.95;30.58;;;;;;;;;;5043418;28;20053;-75
2023/12/25 03:56:36;;;;;;;33.88;31.50;;;;;;;;;;5044445;28;20045;-75
2023/12/25 03:59:08;;;;;;;35.72;33.45;;;;;;;;;;5043821;28;20769;-75
2023/12/25 04:01:40;;;;;;;32.92;30.80;;;;;;;;;;5044319;28;20044;-74
2023/12/25 04:04:11;;;;;;;32.60;30.58;;;;;;;;;;5043643;28;20615;-75
2023/12/25 04:06:43;;;;;;;31.23;29.30;;;;;;;;;;5043693;28;20064;-75
2023/12/25 04:09:13;;;;;;;28.85;27.15;;;;;;;;;;5043241;28;20053;-75
2023/12/25 04:11:43;;;;;;;34.38;32.38;;;;;;;;;;5043084;28;20511;-75
2023/12/25 04:14:13;;;;;;;31.75;29.63;;;;;;;;;;5044155;28;20500;-74
2023/12/25 04:16:44;;;;;;;34.28;32.35;;;;;;;;;;5045247;28;20044;-72
2023/12/25 04:19:16;;;;;;;36.60;34.28;;;;;;;;;;5043876;28;20563;-74
2023/12/25 04:21:46;;;;;;;38.45;36.03;;;;;;;;;;5042920;28;20086;-73
2023/12/25 04:24:16;;;;;;;33.78;31.45;;;;;;;;;;5044742;28;20052;-73
2023/12/25 04:26:47;;;;;;;34.63;32.13;;;;;;;;;;5042536;28;20072;-73
2023/12/25 04:29:18;;;;;;;34.67;32.13;;;;;;;;;;5044861;28;20052;-74
2023/12/25 04:31:49;;;;;;;37.13;34.97;;;;;;;;;;5044382;28;20055;-75
2023/12/25 04:34:20;;;;;;;34.35;31.92;;;;;;;;;;5042487;28;20057;-75
2023/12/25 04:36:52;;;;;;;43.97;41.40;;;;;;;;;;5026773;28;20508;-76
2023/12/25 04:39:23;;;;;;;47.25;44.45;;;;;;;;;;5042742;28;20411;-74
2023/12/25 04:41:54;;;;;;;53.60;50.30;;;;;;;;;;5043560;28;20048;-75
2023/12/25 04:44:24;;;;;;;35.08;33.00;;;;;;;;;;5044002;28;20048;-75
2023/12/25 04:46:54;;;;;;;42.53;39.97;;;;;;;;;;5042794;28;20053;-76
2023/12/25 04:49:26;;;;;;;40.50;38.15;;;;;;;;;;5042462;28;20562;-73
2023/12/25 04:51:57;;;;;;;40.50;37.85;;;;;;;;;;5043639;28;20041;-74
2023/12/25 04:54:27;;;;;;;49.42;45.38;;;;;;;;;;5044252;28;20037;-72
2023/12/25 04:56:58;;;;;;;47.97;44.25;;;;;;;;;;5044517;28;20041;-73
2023/12/25 04:59:28;;;;;;;48.08;45.30;;;;;;;;;;5042337;28;20044;-73
2023/12/25 05:02:03;;;;;;;51.83;48.97;;;;;;;;;;5043034;28;20423;-74
2023/12/25 05:04:33;;;;;;;44.50;41.90;;;;;;;;;;5042357;28;20420;-75
2023/12/25 05:07:05;;;;;;;49.72;46.97;;;;;;;;;;5041855;28;20059;-73
2023/12/25 05:09:36;;;;;;;46.42;43.72;;;;;;;;;;5042115;28;20705;-73
2023/12/25 05:12:08;;;;;;;54.78;51.67;;;;;;;;;;5042550;28;20049;-72
2023/12/25 05:14:39;;;;;;;56.00;52.88;;;;;;;;;;5042881;28;20863;-76
2023/12/25 05:17:09;;;;;;;48.53;45.95;;;;;;;;;;5043753;28;20397;-73
2023/12/25 05:19:40;;;;;;;52.35;49.42;;;;;;;;;;5041960;28;20071;-74
2023/12/25 05:22:12;;;;;;;45.35;42.80;;;;;;;;;;5042255;28;20523;-76
2023/12/25 05:24:42;;;;;;;48.15;45.33;;;;;;;;;;5042284;28;20049;-74
2023/12/25 05:27:12;;;;;;;53.20;49.75;;;;;;;;;;5043545;28;20045;-76
2023/12/25 05:29:43;;;;;;;46.28;43.58;;;;;;;;;;5044122;28;20309;-73
2023/12/25 05:32:15;;;;;;;53.55;50.28;;;;;;;;;;5044113;28;20415;-74
2023/12/25 05:34:47;;;;;;;44.33;41.83;;;;;;;;;;5043092;28;20071;-74
2023/12/25 05:37:17;;;;;;;44.30;41.75;;;;;;;;;;5043092;28;20056;-75
2023/12/25 05:39:47;;;;;;;47.85;44.70;;;;;;;;;;5042574;28;20048;-75
2023/12/25 05:42:17;;;;;;;45.67;42.83;;;;;;;;;;5040816;28;20044;-73
2023/12/25 05:44:49;;;;;;;43.97;41.42;;;;;;;;;;5039379;28;20057;-75
2023/12/25 05:47:20;;;;;;;47.05;44.33;;;;;;;;;;5040170;28;20048;-75
2023/12/25 05:49:53;;;;;;;46.80;44.05;;;;;;;;;;5040176;28;20044;-74
2023/12/25 05:52:24;;;;;;;49.75;46.75;;;;;;;;;;5039851;28;20061;-74
2023/12/25 05:54:55;;;;;;;50.97;47.35;;;;;;;;;;5039807;28;20056;-75
2023/12/25 05:57:26;;;;;;;49.40;46.72;;;;;;;;;;5039967;28;20049;-72
2023/12/25 05:59:56;;;;;;;52.42;49.30;;;;;;;;;;5039951;28;20407;-73
2023/12/25 06:02:26;;;;;;;51.25;48.45;;;;;;;;;;5039824;28;20071;-76
2023/12/25 06:04:57;;;;;;;49.63;46.70;;;;;;;;;;5040289;28;20048;-76
2023/12/25 06:07:28;;;;;;;51.30;48.38;;;;;;;;;;5039808;28;20412;-73
2023/12/25 06:09:59;;;;;;;46.83;44.15;;;;;;;;;;5039479;28;20413;-74
2023/12/25 06:12:29;;;;;;;49.30;45.88;;;;;;;;;;5039365;28;20045;-75
2023/12/25 06:15:03;;;;;;;51.65;48.20;;;;;;;;;;5042422;28;20416;-74
2023/12/25 06:17:33;;;;;;;52.90;49.85;;;;;;;;;;5041832;28;20053;-75
2023/12/25 06:20:06;;;;;;;58.65;55.30;;;;;;;;;;5041935;28;20084;-73
2023/12/25 06:22:47;;;;;;;50.05;47.00;;;;;;;;;;5041848;28;20060;-73
2023/12/25 06:25:17;;;;;;;51.58;48.55;;;;;;;;;;5041985;28;20060;-75
2023/12/25 06:27:48;;;;;;;56.95;53.70;;;;;;;;;;5042160;28;20056;-74
2023/12/25 06:30:31;;;;;;;;;;;;;;;;;;5043368;28;20045;-75
2023/12/25 06:33:02;;;;;;;43.17;40.80;;;;;;;;;;5041988;28;19999;-74
2023/12/25 06:35:32;;;;;;;45.35;42.67;;;;;;;;;;5041667;28;20061;-75
2023/12/25 06:38:03;;;;;;;46.67;43.92;;;;;;;;;;5042153;28;20411;-73
2023/12/25 06:40:33;;;;;;;49.65;46.90;;;;;;;;;;5042575;28;20049;-75
2023/12/25 06:43:04;;;;;;;48.00;45.15;;;;;;;;;;5041858;28;20091;-74
2023/12/25 06:45:34;;;;;;;39.72;37.55;;;;;;;;;;5041361;28;20045;-74
2023/12/25 06:48:07;;;;;;;46.17;43.35;;;;;;;;;;5040313;28;20056;-75
2023/12/25 06:50:40;;;;;;;38.58;36.35;;;;;;;;;;5042224;28;20044;-73
2023/12/25 06:53:11;;;;;;;34.67;32.75;;;;;;;;;;5042252;28;20041;-75
2023/12/25 06:55:41;;;;;;;37.00;34.88;;;;;;;;;;5041418;28;20049;-73
2023/12/25 06:58:11;;;;;;;35.22;33.17;;;;;;;;;;5040719;28;20429;-73
2023/12/25 07:00:42;;;;;;;36.92;34.90;;;;;;;;;;5040285;28;20112;-74
2023/12/25 07:03:12;;;;;;;30.90;29.15;;;;;;;;;;5041361;28;20045;-74
2023/12/25 07:05:42;;;;;;;36.35;34.13;;;;;;;;;;5041121;28;20871;-75
2023/12/25 07:08:14;;;;;;;35.20;33.28;;;;;;;;;;5041230;28;20053;-74
2023/12/25 07:10:46;;;;;;;28.35;26.58;;;;;;;;;;5040485;28;20072;-74
2023/12/25 07:13:16;;;;;;;33.85;31.58;;;;;;;;;;5040415;28;20045;-73
2023/12/25 07:15:46;;;;;;;35.25;33.13;;;;;;;;;;5041816;28;20037;-74
2023/12/25 07:18:17;;;;;;;34.25;32.08;;;;;;;;;;5041386;28;20049;-76
2023/12/25 07:20:49;;;;;;;30.38;28.48;;;;;;;;;;5040111;28;20432;-74
2023/12/25 07:23:21;;;;;;;30.52;28.48;;;;;;;;;;5041563;28;20063;-73
2023/12/25 07:25:52;;;;;;;30.83;28.73;;;;;;;;;;5041112;28;20061;-75
2023/12/25 07:28:22;;;;;;;34.75;32.70;;;;;;;;;;5041238;28;20056;-75
2023/12/25 07:30:52;;;;;;;30.73;29.00;;;;;;;;;;5041135;28;20040;-74
2023/12/25 07:33:24;;;;;;;33.25;31.27;;;;;;;;;;5040892;28;20041;-75
2023/12/25 07:35:54;;;;;;;30.75;28.85;;;;;;;;;;5041807;28;20056;-75
2023/12/25 07:38:25;;;;;;;37.38;34.80;;;;;;;;;;5041044;28;20411;-75
2023/12/25 07:40:55;;;;;;;27.52;25.88;;;;;;;;;;5040987;28;20068;-75
2023/12/25 07:43:27;;;;;;;29.20;27.45;;;;;;;;;;5040715;28;20547;-73
2023/12/25 07:45:58;;;;;;;28.80;27.02;;;;;;;;;;5039973;28;20053;-75
2023/12/25 07:48:28;;;;;;;30.30;28.10;;;;;;;;;;5040632;28;20057;-75
2023/12/25 07:50:59;;;;;;;30.35;28.00;;;;;;;;;;5041292;28;20053;-73
2023/12/25 07:53:30;;;;;;;34.08;32.13;;;;;;;;;;5041070;28;20056;-75
2023/12/25 07:56:00;;;;;;;27.85;26.02;;;;;;;;;;5039657;28;20550;-74
2023/12/25 07:58:30;;;;;;;28.42;26.33;;;;;;;;;;5040977;28;20045;-73
2023/12/25 08:01:02;;;;;;;28.33;26.52;;;;;;;;;;5040764;28;20059;-75
2023/12/25 08:03:33;;;;;;;24.90;23.35;;;;;;;;;;5040970;28;20045;-75
2023/12/25 08:06:05;;;;;;;22.30;21.00;;;;;;;;;;5041336;28;20052;-74
2023/12/25 08:08:35;;;;;;;21.35;20.05;;;;;;;;;;5041322;28;20519;-74
2023/12/25 08:11:05;;;;;;;27.83;25.98;;;;;;;;;;5044372;28;20415;-74
2023/12/25 08:13:35;;;;;;;28.38;26.50;;;;;;;;;;5043880;28;20527;-75
2023/12/25 08:16:06;;;;;;;29.50;27.30;;;;;;;;;;5044365;28;20059;-74
2023/12/25 08:18:37;;;;;;;29.40;27.58;;;;;;;;;;5045481;28;20504;-72
2023/12/25 08:21:07;;;;;;;30.85;29.15;;;;;;;;;;5045125;28;20040;-73
2023/12/25 08:23:37;;;;;;;33.13;30.88;;;;;;;;;;5044498;28;20411;-76
2023/12/25 08:26:08;;;;;;;26.65;25.08;;;;;;;;;;5044188;28;20514;-75
2023/12/25 08:28:40;;;;;;;32.40;29.88;;;;;;;;;;5044597;28;20787;-73
2023/12/25 08:31:11;;;;;;;34.58;32.35;;;;;;;;;;5044403;28;20049;-72
2023/12/25 08:33:42;;;;;;;44.80;42.08;;;;;;;;;;5043935;28;20057;-75
2023/12/25 08:36:12;;;;;;;34.88;32.75;;;;;;;;;;5043997;28;20049;-75
2023/12/25 08:38:44;;;;;;;44.10;41.20;;;;;;;;;;5044656;28;20610;-74
2023/12/25 08:41:15;;;;;;;44.58;41.80;;;;;;;;;;5044943;28;20045;-73
2023/12/25 08:43:44;;;;;;;42.30;39.63;;;;;;;;;;5043971;28;20071;-73
2023/12/25 08:46:19;;;;;;;51.92;48.90;;;;;;;;;;5044572;28;20048;-73
2023/12/25 08:48:49;;;;;;;55.03;52.00;;;;;;;;;;5044651;28;20041;-75
2023/12/25 08:51:21;;;;;;;47.05;44.03;;;;;;;;;;5044547;28;20056;-74
2023/12/25 08:53:52;;;;;;;50.67;47.70;;;;;;;;;;5044073;28;20053;-77
2023/12/25 08:56:25;;;;;;;38.22;35.63;;;;;;;;;;5044111;28;20804;-73
2023/12/25 08:58:58;;;;;;;40.22;37.58;;;;;;;;;;5042060;28;20059;-74
2023/12/25 09:01:30;;;;;;;42.67;40.05;;;;;;;;;;5042977;28;20447;-75
2023/12/25 09:04:01;;;;;;;41.10;38.70;;;;;;;;;;5043886;28;20443;-73
2023/12/25 09:06:32;;;;;;;31.75;29.85;;;;;;;;;;5043894;28;20045;-73
2023/12/25 09:09:05;;;;;;;35.30;33.08;;;;;;;;;;5044242;28;20049;-73
2023/12/25 09:11:36;;;;;;;30.77;29.02;;;;;;;;;;5044282;28;20060;-74
2023/12/25 09:14:06;;;;;;;32.97;30.67;;;;;;;;;;5043267;28;20041;-73
2023/12/25 09:16:36;;;;;;;30.08;27.85;;;;;;;;;;5045858;28;20068;-74
2023/12/25 09:19:07;;;;;;;28.52;26.77;;;;;;;;;;5044197;28;20060;-74
2023/12/25 09:21:39;;;;;;;31.80;29.85;;;;;;;;;;5042493;28;20049;-75
2023/12/25 09:24:10;;;;;;;32.65;30.33;;;;;;;;;;5042922;28;20055;-75
2023/12/25 09:26:41;;;;;;;29.27;27.48;;;;;;;;;;5042983;28;20056;-74
2023/12/25 09:29:12;;;;;;;31.60;29.38;;;;;;;;;;5043569;28;20072;-75
2023/12/25 09:31:44;;;;;;;31.77;29.77;;;;;;;;;;5042995;28;20044;-72
2023/12/25 09:34:15;;;;;;;35.53;33.33;;;;;;;;;;5042810;28;20072;-74
2023/12/25 09:36:46;;;;;;;31.98;29.92;;;;;;;;;;5042826;28;20056;-75
2023/12/25 09:39:16;;;;;;;31.60;29.63;;;;;;;;;;5042852;28;20512;-75
2023/12/25 09:41:47;;;;;;;31.90;29.65;;;;;;;;;;5043060;28;20053;-74
2023/12/25 09:44:18;;;;;;;32.38;30.23;;;;;;;;;;5041510;28;20060;-73
2023/12/25 09:46:49;;;;;;;32.50;30.00;;;;;;;;;;5043696;28;20053;-73
2023/12/25 09:49:20;;;;;;;33.10;30.70;;;;;;;;;;5041799;28;20532;-74
2023/12/25 09:51:55;;;;;;;30.80;28.77;;;;;;;;;;5042348;28;20045;-74
2023/12/25 09:54:27;;;;;;;30.42;28.52;;;;;;;;;;5042199;28;20988;-74
2023/12/25 09:56:58;;;;;;;28.13;26.20;;;;;;;;;;5042366;28;20052;-75
2023/12/25 09:59:30;;;;;;;33.72;31.63;;;;;;;;;;5042276;28;20057;-74
2023/12/25 10:02:06;;;;;;;32.58;30.58;;;;;;;;;;5042763;28;20518;-74
2023/12/25 10:04:41;;;;;;;28.67;26.83;;;;;;;;;;5041973;28;20063;-74
2023/12/25 10:07:12;;;;;;;28.20;26.23;;;;;;;;;;5042591;28;20052;-76
2023/12/25 10:09:42;;;;;;;29.90;27.70;;;;;;;;;;5042060;28;20590;-74
2023/12/25 10:12:14;;;;;;;27.00;25.50;;;;;;;;;;5041161;28;20691;-75
2023/12/25 10:14:46;;;;;;;28.52;26.88;;;;;;;;;;5042246;28;20041;-75
2023/12/25 10:17:17;;;;;;;33.92;31.88;;;;;;;;;;5041398;28;20048;-75
2023/12/25 10:19:52;;;;;;;26.75;24.98;;;;;;;;;;5042898;28;20044;-75
2023/12/25 10:22:34;;;;;;;26.30;24.60;;;;;;;;;;5042141;28;20049;-75
2023/12/25 10:25:06;;;;;;;31.60;29.80;;;;;;;;;;5042056;28;20512;-75
2023/12/25 10:27:39;;;;;;;30.83;28.58;;;;;;;;;;5042102;28;20388;-73
2023/12/25 10:30:21;;;;;;;24.85;23.20;;;;;;;;;;5041906;28;20045;-75
2023/12/25 10:33:14;;;;;;;30.48;28.48;;;;;;;;;;5041374;28;20051;-74
2023/12/25 10:36:04;;;;;;;31.83;29.70;;;;;;;;;;5041789;28;20048;-75
2023/12/25 10:38:38;;;;;;;24.98;22.88;;;;;;;;;;5042034;28;20512;-75
2023/12/25 10:41:22;;;;;;;24.95;23.30;;;;;;;;;;5042055;28;20389;-74
2023/12/25 10:44:00;;;;;;;29.33;27.45;;;;;;;;;;5041378;28;20421;-74
2023/12/25 10:46:36;;;;;;;28.10;26.27;;;;;;;;;;5042024;28;20056;-74
2023/12/25 10:49:09;;;;;;;26.33;24.40;;;;;;;;;;5041951;28;20415;-74
2023/12/25 10:51:46;;;;;;;21.95;20.27;;;;;;;;;;5041522;28;20060;-75
2023/12/25 10:54:20;;;;;;;23.48;21.92;;;;;;;;;;5041807;28;20056;-74
2023/12/25 10:56:51;;;;;;;24.90;22.92;;;;;;;;;;5041899;28;20060;-76
2023/12/25 10:59:27;;;;;;;28.98;26.98;;;;;;;;;;5041411;28;20044;-75
2023/12/25 11:02:03;;;;;;;20.38;18.98;;;;;;;;;;5041525;28;20480;-76
2023/12/25 11:04:36;;;;;;;29.38;27.52;;;;;;;;;;5042396;28;20045;-76
2023/12/25 11:07:07;;;;;;;32.40;30.35;;;;;;;;;;5041835;28;20040;-76
2023/12/25 11:09:37;;;;;;;35.60;33.17;;;;;;;;;;5041601;28;20053;-76
2023/12/25 11:12:08;;;;;;;32.55;29.95;;;;;;;;;;5041518;28;20045;-76
2023/12/25 11:14:40;;;;;;;41.90;39.30;;;;;;;;;;5041623;28;20056;-76
2023/12/25 11:17:11;;;;;;;30.95;28.52;;;;;;;;;;5041220;28;20037;-75
2023/12/25 11:19:42;;;;;;;32.15;30.02;;;;;;;;;;5041274;28;20091;-78
2023/12/25 11:22:36;;;;;;;28.70;26.83;;;;;;;;;;5041223;28;20049;-77
2023/12/25 11:25:37;;;;;;;35.75;33.50;;;;;;;;;;5041031;28;20057;-73
2023/12/25 11:28:07;;;;;;;23.30;21.85;;;;;;;;;;5041676;28;20049;-75
2023/12/25 11:30:39;;;;;;;19.52;18.05;;;;;;;;;;5041658;28;20059;-76
2023/12/25 11:33:12;;;;;;;29.95;27.92;;;;;;;;;;5040927;28;20053;-75
2023/12/25 11:35:43;;;;;;;27.15;25.00;;;;;;;;;;5039468;28;20053;-75
2023/12/25 11:38:19;;;;;;;21.60;20.15;;;;;;;;;;5041008;28;20430;-75
2023/12/25 11:40:51;;;;;;;24.88;23.33;;;;;;;;;;5041687;28;20053;-76
2023/12/25 11:43:23;;;;;;;59.10;55.42;;;;;;;;;;5041793;28;20075;-77
2023/12/25 11:45:56;;;;;;;51.17;48.17;;;;;;;;;;5044570;28;20055;-79
2023/12/25 11:48:28;;;;;;;28.90;26.88;;;;;;;;;;5044433;28;20056;-73
2023/12/25 11:51:04;;;;;;;26.88;24.98;;;;;;;;;;5045066;28;20045;-74
2023/12/25 11:53:37;;;;;;;33.78;31.65;;;;;;;;;;5043356;28;20522;-79
2023/12/25 11:56:09;;;;;;;25.80;24.27;;;;;;;;;;5044833;28;20048;-74
2023/12/25 11:58:40;;;;;;;25.42;23.65;;;;;;;;;;5044745;28;20836;-74
2023/12/25 12:01:19;;;;;;;28.10;26.27;;;;;;;;;;5044952;28;20041;-73
2023/12/25 12:03:51;;;;;;;46.53;43.67;;;;;;;;;;5044586;28;20053;-76
2023/12/25 12:06:23;;;;;;;36.47;34.25;;;;;;;;;;5044660;28;20693;-77
2023/12/25 12:08:53;;;;;;;28.33;26.30;;;;;;;;;;5044921;28;20060;-75
2023/12/25 12:11:24;;;;;;;23.08;21.33;;;;;;;;;;5045066;28;20045;-75
2023/12/25 12:13:56;;;;;;;29.77;27.95;;;;;;;;;;5045777;28;20052;-75
2023/12/25 12:16:27;;;;;;;25.38;23.27;;;;;;;;;;5045486;28;20411;-75
2023/12/25 12:18:58;;;;;;;18.35;17.15;;;;;;;;;;5044835;28;20041;-76
2023/12/25 12:21:29;;;;;;;24.00;22.52;;;;;;;;;;5044577;28;20052;-73
2023/12/25 12:24:00;;;;;;;17.90;16.67;;;;;;;;;;5044170;28;20048;-79
2023/12/25 12:26:32;;;;;;;21.08;19.35;;;;;;;;;;5043616;28;20419;-76
2023/12/25 12:29:02;;;;;;;21.50;19.67;;;;;;;;;;5044436;28;20045;-76
2023/12/25 12:31:32;;;;;;;21.67;19.98;;;;;;;;;;5044172;28;20045;-76
2023/12/25 12:34:04;;;;;;;20.63;19.05;;;;;;;;;;5043997;28;20061;-76
2023/12/25 12:36:35;;;;;;;19.48;18.08;;;;;;;;;;5043829;28;20415;-75
2023/12/25 12:39:05;;;;;;;19.83;18.50;;;;;;;;;;5043751;28;20045;-75
2023/12/25 12:41:36;;;;;;;21.73;20.23;;;;;;;;;;5044089;28;20048;-76
2023/12/25 12:44:08;;;;;;;13.82;12.98;;;;;;;;;;5044535;28;20052;-75
2023/12/25 12:46:40;;;;;;;23.58;22.02;;;;;;;;;;5048325;28;20408;-75
2023/12/25 12:49:10;;;;;;;18.55;17.38;;;;;;;;;;5064506;28;20515;-75
2023/12/25 12:51:41;;;;;;;22.08;20.73;;;;;;;;;;5064772;28;20051;-75
2023/12/25 12:54:12;;;;;;;21.17;19.77;;;;;;;;;;5064670;28;20048;-78
2023/12/25 12:56:43;;;;;;;17.90;16.67;;;;;;;;;;5064579;28;20549;-76
2023/12/25 12:59:14;;;;;;;27.00;25.05;;;;;;;;;;5063302;28;20063;-76
2023/12/25 13:01:44;;;;;;;24.52;22.88;;;;;;;;;;5063940;28;20044;-75
2023/12/25 13:04:21;;;;;;;17.38;16.30;;;;;;;;;;5063734;28;20419;-77
2023/12/25 13:07:03;;;;;;;34.97;32.58;;;;;;;;;;5065436;28;20086;-75
2023/12/25 13:09:34;;;;;;;25.45;23.83;;;;;;;;;;5062817;28;20063;-74
2023/12/25 13:12:05;;;;;;;23.25;21.90;;;;;;;;;;5063573;28;20044;-75
2023/12/25 13:14:35;;;;;;;21.90;20.13;;;;;;;;;;5063517;28;20048;-76
2023/12/25 13:17:10;;;;;;;46.88;43.38;;;;;;;;;;5063233;28;20053;-74
2023/12/25 13:19:40;;;;;;;20.15;18.98;;;;;;;;;;5063824;28;20657;-76
2023/12/25 13:22:10;;;;;;;19.40;18.15;;;;;;;;;;5063056;28;20045;-76
2023/12/25 13:24:42;;;;;;;26.77;25.13;;;;;;;;;;5063076;28;20444;-75
2023/12/25 13:27:13;;;;;;;28.63;26.92;;;;;;;;;;5062641;28;20072;-75
2023/12/25 13:29:43;;;;;;;30.13;28.45;;;;;;;;;;5062797;28;20051;-75
2023/12/25 13:32:14;;;;;;;32.45;30.25;;;;;;;;;;5063580;28;20056;-75
2023/12/25 13:34:45;;;;;;;36.95;34.65;;;;;;;;;;5062817;28;20049;-75
2023/12/25 13:37:16;;;;;;;32.05;29.92;;;;;;;;;;5062976;28;20052;-76
2023/12/25 13:39:47;;;;;;;35.67;33.47;;;;;;;;;;5063550;28;20044;-76
2023/12/25 13:42:17;;;;;;;37.13;34.55;;;;;;;;;;5061808;28;20861;-76
2023/12/25 13:44:49;;;;;;;42.38;39.40;;;;;;;;;;5062416;28;20059;-75
2023/12/25 13:47:21;;;;;;;58.53;54.00;;;;;;;;;;5062187;28;20060;-75
2023/12/25 13:49:52;;;;;;;26.48;24.70;;;;;;;;;;5042945;28;20045;-76
2023/12/25 13:52:24;;;;;;;30.63;28.55;;;;;;;;;;5041234;28;20538;-74
2023/12/25 13:54:54;;;;;;;33.38;30.70;;;;;;;;;;5042451;28;20049;-76
2023/12/25 13:57:25;;;;;;;26.77;25.23;;;;;;;;;;5042327;28;20064;-76
2023/12/25 13:59:55;;;;;;;27.05;25.45;;;;;;;;;;5042642;28;20514;-75
2023/12/25 14:02:25;;;;;;;20.98;19.67;;;;;;;;;;5042778;28;20060;-76
2023/12/25 14:04:56;;;;;;;20.23;18.92;;;;;;;;;;5042833;28;20052;-75
2023/12/25 14:07:28;;;;;;;25.10;23.55;;;;;;;;;;5042727;28;20063;-76
2023/12/25 14:09:59;;;;;;;45.22;42.47;;;;;;;;;;5043420;28;20037;-79
2023/12/25 14:12:41;;;;;;;42.90;40.30;;;;;;;;;;5042503;28;20045;-75
2023/12/25 14:15:16;;;;;;;56.97;53.60;;;;;;;;;;5042656;28;20051;-75
2023/12/25 14:17:51;;;;;;;35.67;33.42;;;;;;;;;;5042056;28;20048;-76
2023/12/25 14:20:22;;;;;;;37.80;35.60;;;;;;;;;;5041014;28;20060;-79
2023/12/25 14:22:54;;;;;;;42.72;40.22;;;;;;;;;;5042574;28;20056;-74
2023/12/25 14:25:25;;;;;;;38.17;35.63;;;;;;;;;;5041710;28;20053;-75
2023/12/25 14:27:56;;;;;;;43.47;40.85;;;;;;;;;;5043059;28;20040;-77
2023/12/25 14:30:31;;;;;;;61.38;57.55;;;;;;;;;;5041935;28;20045;-74
2023/12/25 14:33:01;;;;;;;51.65;48.55;;;;;;;;;;5041946;28;20053;-75
2023/12/25 14:35:33;;;;;;;37.83;35.47;;;;;;;;;;5041853;28;20064;-75
2023/12/25 14:38:05;;;;;;;34.33;32.28;;;;;;;;;;5041435;28;20053;-75
2023/12/25 14:40:36;;;;;;;46.92;44.03;;;;;;;;;;5042315;28;20048;-75
2023/12/25 14:43:06;;;;;;;51.28;47.95;;;;;;;;;;5041845;28;20596;-76